createdAt,value
2019-02-14T00:00:37.761Z,103015.40
2019-02-14T00:03:10.341Z,103019.58
2019-02-14T00:05:44.180Z,103011.58
2019-02-14T00:08:18.735Z,103015.72
2019-02-14T00:10:54.928Z,103019.93
2019-02-14T00:13:26.495Z,103007.91
2019-02-14T00:16:03.763Z,103013.39
2019-02-14T00:18:38.814Z,103013.23
2019-02-14T00:21:13.323Z,103024.80
2019-02-14T00:23:45.486Z,103024.44
2019-02-14T00:26:19.642Z,103023.62
2019-02-14T00:28:55.564Z,103026.14
2019-02-14T00:31:28.131Z,103028.11
2019-02-14T00:34:03.752Z,103030.45
2019-02-14T00:36:36.556Z,103021.60
2019-02-14T00:39:08.130Z,103024.61
2019-02-14T00:41:39.902Z,103022.45
2019-02-14T00:44:17.796Z,103021.44
2019-02-14T00:46:47.862Z,103021.41
2019-02-14T00:49:23.969Z,103021.41
2019-02-14T00:52:00.865Z,103014.39
2019-02-14T00:54:34.970Z,103012.06
2019-02-14T00:57:06.359Z,103008.86
2019-02-14T00:59:41.045Z,103013.08
2019-02-14T01:02:11.586Z,103014.74
2019-02-14T01:04:45.895Z,102997.30
2019-02-14T01:07:16.605Z,103008.86
2019-02-14T01:09:50.044Z,103003.02
2019-02-14T01:12:21.164Z,102981.43
2019-02-14T01:17:34.378Z,103000.34
2019-02-14T01:22:44.700Z,102995.31
2019-02-14T01:25:16.892Z,103006.88
2019-02-14T01:27:47.027Z,103000.02
2019-02-14T01:30:21.322Z,103000.17
2019-02-14T01:32:54.279Z,102990.31
2019-02-14T01:35:30.162Z,102999.69
2019-02-14T01:38:00.747Z,102998.31
2019-02-14T01:40:34.862Z,102988.09
2019-02-14T01:43:05.758Z,102987.31
2019-02-14T01:45:37.261Z,102994.98
2019-02-14T01:48:14.338Z,102987.92
2019-02-14T01:50:48.377Z,102986.62
2019-02-14T01:53:20.979Z,102985.15
2019-02-14T01:55:51.677Z,102985.64
2019-02-14T01:58:25.624Z,102990.15
2019-02-14T02:01:00.469Z,102985.61
2019-02-14T02:03:35.276Z,102989.98
2019-02-14T02:06:05.362Z,102995.34
2019-02-14T02:08:40.444Z,102996.00
2019-02-14T02:11:12.724Z,102987.66
2019-02-14T02:13:45.004Z,102988.61
2019-02-14T02:16:18.891Z,102976.76
2019-02-14T02:18:55.983Z,102963.89
2019-02-14T02:21:28.329Z,102962.88
2019-02-14T02:24:03.690Z,102961.70
2019-02-14T02:26:36.563Z,102954.69
2019-02-14T02:29:10.279Z,102960.23
2019-02-14T02:31:43.458Z,102967.91
2019-02-14T02:34:16.768Z,102966.73
2019-02-14T02:36:49.230Z,102975.59
2019-02-14T02:39:23.256Z,102971.91
2019-02-14T02:42:00.447Z,102975.61
2019-02-14T02:44:36.096Z,102973.59
2019-02-14T02:47:13.605Z,102957.52
2019-02-14T02:49:44.943Z,102946.48
2019-02-14T02:52:16.995Z,102952.70
2019-02-14T02:54:56.368Z,102966.07
2019-02-14T02:57:26.463Z,102969.42
2019-02-14T03:00:05.291Z,102976.27
2019-02-14T03:02:37.052Z,102975.45
2019-02-14T03:05:18.512Z,102979.95
2019-02-14T03:07:54.475Z,102989.16
2019-02-14T03:10:25.588Z,102986.64
2019-02-14T03:12:58.938Z,102985.32
2019-02-14T03:15:31.027Z,102982.64
2019-02-14T03:18:04.541Z,102994.68
2019-02-14T03:20:38.927Z,103002.19
2019-02-14T03:23:16.872Z,102999.69
2019-02-14T03:25:49.006Z,102994.83
2019-02-14T03:28:24.957Z,103001.36
2019-02-14T03:30:55.549Z,103008.88
2019-02-14T03:33:35.027Z,102997.52
2019-02-14T03:36:07.401Z,102989.91
2019-02-14T03:38:41.411Z,102996.50
2019-02-14T03:43:50.385Z,103006.03
2019-02-14T03:46:21.797Z,103015.57
2019-02-14T03:48:56.945Z,103018.26
2019-02-14T03:51:34.254Z,103016.09
2019-02-14T03:54:04.328Z,103005.36
2019-02-14T03:56:38.372Z,103008.03
2019-02-14T03:59:09.645Z,103013.66
2019-02-14T04:01:43.353Z,103012.50
2019-02-14T04:04:16.436Z,103015.97
2019-02-14T04:06:49.931Z,103006.63
2019-02-14T04:09:29.667Z,103003.50
2019-02-14T04:12:04.201Z,103016.33
2019-02-14T04:14:36.915Z,103022.17
2019-02-14T04:17:10.059Z,103031.22
2019-02-14T04:19:40.211Z,103023.67
2019-02-14T04:22:13.182Z,103013.14
2019-02-14T04:24:47.259Z,103015.47
2019-02-14T04:27:20.262Z,103006.97
2019-02-14T04:29:53.053Z,103021.28
2019-02-14T04:32:24.926Z,103017.45
2019-02-14T04:34:58.131Z,103012.59
2019-02-14T04:37:35.006Z,103012.44
2019-02-14T04:40:14.727Z,103022.67
2019-02-14T04:42:48.135Z,103016.98
2019-02-14T04:45:22.226Z,103018.64
2019-02-14T04:47:57.147Z,103020.81
2019-02-14T04:50:28.652Z,103020.60
2019-02-14T04:53:03.740Z,103026.99
2019-02-14T04:55:36.786Z,103032.61
2019-02-14T04:58:10.174Z,103040.48
2019-02-14T05:00:44.570Z,103041.33
2019-02-14T05:03:18.290Z,103031.81
2019-02-14T05:05:49.528Z,103049.49
2019-02-14T05:08:23.364Z,103054.07
2019-02-14T05:10:55.626Z,103054.58
2019-02-14T05:13:33.535Z,103053.02
2019-02-14T05:16:06.990Z,103059.20
2019-02-14T05:18:41.166Z,103067.37
2019-02-14T05:21:13.082Z,103055.81
2019-02-14T05:23:46.549Z,103068.53
2019-02-14T05:26:16.749Z,103059.08
2019-02-14T05:28:52.788Z,103067.47
2019-02-14T05:31:23.730Z,103075.66
2019-02-14T05:33:56.858Z,103072.64
2019-02-14T05:36:29.079Z,103064.40
2019-02-14T05:39:03.518Z,103060.77
2019-02-14T05:41:39.369Z,103065.31
2019-02-14T05:44:13.287Z,103045.41
2019-02-14T05:46:46.952Z,103034.53
2019-02-14T05:49:19.976Z,103042.09
2019-02-14T05:51:54.896Z,103053.41
2019-02-14T05:54:26.242Z,103052.59
2019-02-14T05:56:59.546Z,103044.97
2019-02-14T05:59:35.878Z,103048.34
2019-02-14T06:02:05.912Z,103042.14
2019-02-14T06:04:39.224Z,103043.66
2019-02-14T06:07:14.500Z,103044.79
2019-02-14T06:09:46.392Z,103058.48
2019-02-14T06:12:20.250Z,103070.08
2019-02-14T06:14:54.453Z,103073.08
2019-02-14T06:17:28.156Z,103071.72
2019-02-14T06:19:58.882Z,103075.91
2019-02-14T06:22:33.534Z,103072.08
2019-02-14T06:25:06.203Z,103064.34
2019-02-14T06:27:38.976Z,103061.81
2019-02-14T06:30:11.018Z,103060.44
2019-02-14T06:32:45.474Z,103066.59
2019-02-14T06:35:16.908Z,103061.78
2019-02-14T06:37:56.796Z,103074.39
2019-02-14T06:40:28.931Z,103080.73
2019-02-14T06:43:03.357Z,103085.95
2019-02-14T06:45:36.248Z,103084.33
2019-02-14T06:50:54.432Z,103089.06
2019-02-14T06:53:28.950Z,103107.02
2019-02-14T06:56:04.592Z,103099.16
2019-02-14T06:58:35.118Z,103094.45
2019-02-14T07:01:05.938Z,103091.87
2019-02-14T07:03:39.144Z,103090.92
2019-02-14T07:06:14.902Z,103100.97
2019-02-14T07:08:49.166Z,103098.43
2019-02-14T07:11:28.605Z,103107.34
2019-02-14T07:14:07.740Z,103112.09
2019-02-14T07:16:59.852Z,103115.03
2019-02-14T07:19:31.757Z,103119.65
2019-02-14T07:22:09.186Z,103114.31
2019-02-14T07:30:04.822Z,103119.84
2019-02-14T07:32:38.007Z,103128.08
2019-02-14T07:35:15.401Z,103132.32
2019-02-14T07:37:50.436Z,103139.89
2019-02-14T07:40:25.914Z,103145.63
2019-02-14T07:43:00.815Z,103129.84
2019-02-14T07:45:35.070Z,103125.09
2019-02-14T07:48:07.281Z,103123.22
2019-02-14T07:50:45.670Z,103118.61
2019-02-14T07:53:16.986Z,103118.74
2019-02-14T07:55:53.373Z,103122.13
2019-02-14T07:58:27.874Z,103133.84
2019-02-14T08:01:00.799Z,103136.90
2019-02-14T08:03:35.354Z,103143.62
2019-02-14T08:06:07.383Z,103143.55
2019-02-14T08:08:43.759Z,103144.09
2019-02-14T08:11:17.005Z,103157.86
2019-02-14T08:13:49.923Z,103156.84
2019-02-14T08:16:21.481Z,103155.13
2019-02-14T08:18:54.682Z,103154.20
2019-02-14T08:21:26.617Z,103141.48
2019-02-14T08:24:05.358Z,103143.36
2019-02-14T08:26:37.843Z,103135.81
2019-02-14T08:29:10.890Z,103136.19
2019-02-14T08:31:45.503Z,103128.80
2019-02-14T08:34:23.847Z,103128.31
2019-02-14T08:36:57.241Z,103128.74
2019-02-14T08:39:34.051Z,103126.66
2019-02-14T08:42:09.389Z,103130.13
2019-02-14T08:44:42.875Z,103130.46
2019-02-14T08:47:13.901Z,103123.98
2019-02-14T08:49:47.645Z,103129.09
2019-02-14T08:52:19.117Z,103124.64
2019-02-14T08:54:58.207Z,103124.30
2019-02-14T08:57:29.880Z,103111.03
2019-02-14T09:00:06.145Z,103119.38
2019-02-14T09:02:45.455Z,103121.90
2019-02-14T09:05:17.933Z,103127.55
2019-02-14T09:07:54.613Z,103129.66
2019-02-14T09:10:28.817Z,103129.50
2019-02-14T09:13:04.737Z,103138.89
2019-02-14T09:15:40.550Z,103133.06
2019-02-14T09:18:16.277Z,103130.69
2019-02-14T09:20:56.182Z,103121.79
2019-02-14T09:23:28.111Z,103128.06
2019-02-14T09:26:03.530Z,103125.50
2019-02-14T09:28:43.423Z,103122.38
2019-02-14T09:31:19.600Z,103122.68
2019-02-14T09:33:57.297Z,103118.19
2019-02-14T09:36:34.781Z,103118.67
2019-02-14T09:39:07.779Z,103126.20
2019-02-14T09:41:44.443Z,103123.91
2019-02-14T09:44:20.654Z,103121.05
2019-02-14T09:46:57.779Z,103125.23
2019-02-14T09:49:29.717Z,103122.05
2019-02-14T09:52:00.119Z,103117.44
2019-02-14T09:54:33.163Z,103127.19
2019-02-14T09:57:04.767Z,103124.19
2019-02-14T09:59:39.351Z,103116.87
2019-02-14T10:02:14.583Z,103113.22
2019-02-14T10:04:48.195Z,103113.22
2019-02-14T10:07:20.199Z,103114.37
2019-02-14T10:09:54.099Z,103114.37
2019-02-14T10:12:25.208Z,103114.41
2019-02-14T10:15:00.473Z,103107.42
2019-02-14T10:17:37.868Z,103104.95
2019-02-14T10:20:12.743Z,103103.28
2019-02-14T10:22:46.390Z,103103.95
2019-02-14T10:25:18.819Z,103107.16
2019-02-14T10:27:52.015Z,103102.32
2019-02-14T10:30:25.957Z,103105.84
2019-02-14T10:33:02.108Z,103099.19
2019-02-14T10:35:36.593Z,103106.87
2019-02-14T10:38:07.172Z,103110.91
2019-02-14T10:43:19.200Z,103107.27
2019-02-14T10:45:51.987Z,103112.95
2019-02-14T10:48:30.117Z,103106.28
2019-02-14T10:51:01.116Z,103106.96
2019-02-14T10:53:36.936Z,103101.49
2019-02-14T10:56:08.272Z,103095.52
2019-02-14T10:58:41.021Z,103092.49
2019-02-14T11:01:11.014Z,103091.33
2019-02-14T11:03:46.476Z,103088.34
2019-02-14T11:06:19.070Z,103075.78
2019-02-14T11:08:50.808Z,103076.98
2019-02-14T11:11:21.435Z,103076.48
2019-02-14T11:13:55.857Z,103076.65
2019-02-14T11:16:27.395Z,103068.47
2019-02-14T11:19:04.823Z,103075.68
2019-02-14T11:21:36.982Z,103071.14
2019-02-14T11:24:10.280Z,103073.82
2019-02-14T11:26:41.218Z,103069.98
2019-02-14T11:29:15.146Z,103075.01
2019-02-14T11:31:45.999Z,103066.95
2019-02-14T11:34:20.974Z,103070.65
2019-02-14T11:36:52.134Z,103070.28
2019-02-14T11:39:24.904Z,103060.58
2019-02-14T11:41:58.528Z,103066.92
2019-02-14T11:44:39.832Z,103064.73
2019-02-14T11:47:08.724Z,103054.86
2019-02-14T11:49:40.889Z,103059.89
2019-02-14T11:54:55.465Z,103051.33
2019-02-14T11:57:30.912Z,103051.25
2019-02-14T12:00:02.676Z,103057.31
2019-02-14T12:02:37.970Z,103058.65
2019-02-14T12:05:08.289Z,103048.91
2019-02-14T12:07:44.314Z,103050.52
2019-02-14T12:10:14.635Z,103043.30
2019-02-14T12:12:51.804Z,103043.13
2019-02-14T12:15:24.878Z,103044.30
2019-02-14T12:17:59.048Z,103042.47
2019-02-14T12:20:33.011Z,103038.52
2019-02-14T12:23:03.858Z,103035.22
2019-02-14T12:25:37.508Z,103033.33
2019-02-14T12:28:08.931Z,103035.84
2019-02-14T12:30:41.174Z,103034.75
2019-02-14T12:33:14.787Z,103036.09
2019-02-14T12:35:49.622Z,103028.01
2019-02-14T12:38:23.086Z,103026.03
2019-02-14T12:40:54.385Z,103025.20
2019-02-14T12:43:39.560Z,103023.24
2019-02-14T12:46:09.674Z,103023.99
2019-02-14T12:48:47.479Z,103020.42
2019-02-14T12:51:17.707Z,103017.85
2019-02-14T12:53:50.571Z,103022.17
2019-02-14T12:56:21.287Z,103008.13
2019-02-14T12:58:55.375Z,103006.66
2019-02-14T13:01:27.201Z,103001.23
2019-02-14T13:03:59.767Z,102996.83
2019-02-14T13:06:30.901Z,102998.84
2019-02-14T13:09:03.907Z,102995.02
2019-02-14T13:11:35.630Z,102989.47
2019-02-14T13:14:08.051Z,102984.73
2019-02-14T13:16:38.071Z,102987.17
2019-02-14T13:19:13.599Z,102983.13
2019-02-14T13:21:46.785Z,102979.47
2019-02-14T13:24:21.861Z,102969.49
2019-02-14T13:26:56.514Z,102977.41
2019-02-14T13:29:28.945Z,102971.33
2019-02-14T13:32:07.014Z,102971.69
2019-02-14T13:34:37.054Z,102956.62
2019-02-14T13:37:09.035Z,102963.83
2019-02-14T13:39:40.611Z,102959.34
2019-02-14T13:42:16.990Z,102956.58
2019-02-14T13:44:49.535Z,102963.44
2019-02-14T13:49:55.828Z,102965.13
2019-02-14T13:52:28.502Z,102960.67
2019-02-14T13:55:04.341Z,102958.89
2019-02-14T13:57:39.465Z,102963.33
2019-02-14T14:00:27.027Z,102968.03
2019-02-14T14:02:59.692Z,102965.97
2019-02-14T14:05:30.615Z,102967.31
2019-02-14T14:08:05.683Z,102974.69
2019-02-14T14:10:42.147Z,102974.46
2019-02-14T14:13:16.032Z,102966.95
2019-02-14T14:15:49.126Z,102974.14
2019-02-14T14:18:24.662Z,102970.00
2019-02-14T14:21:00.045Z,102969.58
2019-02-14T14:23:30.427Z,102971.29
2019-02-14T14:26:04.291Z,102971.86
2019-02-14T14:28:39.055Z,102968.98
2019-02-14T14:31:14.763Z,102976.80
2019-02-14T14:33:51.899Z,102972.00
2019-02-14T14:36:29.049Z,102967.92
2019-02-14T14:39:06.019Z,102975.19
2019-02-14T14:41:39.187Z,102970.61
2019-02-14T14:44:31.357Z,102974.41
2019-02-14T14:47:08.829Z,102965.77
2019-02-14T14:49:39.012Z,102971.68
2019-02-14T14:52:16.279Z,102965.00
2019-02-14T14:54:47.459Z,102970.52
2019-02-14T14:57:24.617Z,102962.67
2019-02-14T15:00:00.356Z,102963.84
2019-02-14T15:02:33.364Z,102960.44
2019-02-14T15:05:05.082Z,102966.00
2019-02-14T15:07:43.142Z,102959.27
2019-02-14T15:10:18.173Z,102965.41
2019-02-14T15:12:49.644Z,102959.72
2019-02-14T15:15:25.545Z,102960.03
2019-02-14T15:18:03.947Z,102956.89
2019-02-14T15:20:40.954Z,102950.84
2019-02-14T15:23:15.552Z,102955.73
2019-02-14T15:25:47.860Z,102960.42
2019-02-14T15:28:17.884Z,102957.31
2019-02-14T15:30:49.805Z,102953.88
2019-02-14T15:33:24.955Z,102959.48
2019-02-14T15:35:57.506Z,102956.38
2019-02-14T15:38:36.890Z,102956.74
2019-02-14T15:41:07.893Z,102955.79
2019-02-14T15:43:46.114Z,102958.34
2019-02-14T15:46:16.106Z,102953.79
2019-02-14T15:48:48.199Z,102954.28
2019-02-14T15:51:20.023Z,102951.50
2019-02-14T15:53:55.100Z,102954.09
2019-02-14T15:56:27.212Z,102957.55
2019-02-14T15:59:04.771Z,102958.09
2019-02-14T16:01:44.361Z,102962.30
2019-02-14T16:04:22.934Z,102960.40
2019-02-14T16:06:54.205Z,102957.58
2019-02-14T16:09:30.761Z,102960.09
2019-02-14T16:12:04.770Z,102964.51
2019-02-14T16:14:42.665Z,102962.39
2019-02-14T16:17:15.762Z,102961.08
2019-02-14T16:19:47.250Z,102961.78
2019-02-14T16:22:29.860Z,102957.99
2019-02-14T16:24:59.314Z,102964.56
2019-02-14T16:27:35.800Z,102968.48
2019-02-14T16:30:08.884Z,102959.81
2019-02-14T16:32:43.179Z,102969.56
2019-02-14T16:35:17.600Z,102964.77
2019-02-14T16:37:51.394Z,102969.37
2019-02-14T16:40:28.143Z,102974.89
2019-02-14T16:43:03.777Z,102965.50
2019-02-14T16:45:36.246Z,102971.30
2019-02-14T16:48:07.460Z,102977.33
2019-02-14T16:50:44.670Z,102976.39
2019-02-14T16:53:17.313Z,102975.07
2019-02-14T16:58:29.582Z,102976.07
2019-02-14T17:01:00.191Z,102986.66
2019-02-14T17:06:08.973Z,102975.79
2019-02-14T17:08:41.769Z,102978.30
2019-02-14T17:11:24.265Z,102979.84
2019-02-14T17:13:58.598Z,102976.85
2019-02-14T17:16:31.310Z,102981.23
2019-02-14T17:19:07.345Z,102982.22
2019-02-14T17:21:39.747Z,102980.94
2019-02-14T17:24:11.022Z,102983.23
2019-02-14T17:26:45.235Z,102989.63
2019-02-14T17:29:18.247Z,102982.13
2019-02-14T17:31:51.451Z,102977.58
2019-02-14T17:34:27.789Z,102984.13
2019-02-14T17:37:00.346Z,102986.66
2019-02-14T17:39:31.021Z,102991.52
2019-02-14T17:42:01.645Z,102991.36
2019-02-14T17:44:31.843Z,102990.04
2019-02-14T17:47:04.728Z,102991.73
2019-02-14T17:49:37.836Z,102988.72
2019-02-14T17:52:14.530Z,102992.27
2019-02-14T17:54:45.449Z,102987.30
2019-02-14T17:57:19.166Z,102993.47
2019-02-14T17:59:53.188Z,102990.95
2019-02-14T18:02:30.878Z,102986.45
2019-02-14T18:05:01.998Z,102982.28
2019-02-14T18:07:33.012Z,102977.93
2019-02-14T18:10:04.726Z,102979.13
2019-02-14T18:12:39.317Z,102982.17
2019-02-14T18:15:14.268Z,102986.03
2019-02-14T18:17:45.293Z,102976.17
2019-02-14T18:20:17.774Z,102976.02
2019-02-14T18:22:50.158Z,102976.19
2019-02-14T18:25:23.995Z,102975.05
2019-02-14T18:27:56.958Z,102976.23
2019-02-14T18:30:31.756Z,102977.28
2019-02-14T18:33:08.540Z,102978.26
2019-02-14T18:35:43.935Z,102979.30
2019-02-14T18:38:14.685Z,102978.27
2019-02-14T18:40:52.055Z,102983.80
2019-02-14T18:43:27.589Z,102983.28
2019-02-14T18:46:03.871Z,102984.98
2019-02-14T18:48:40.023Z,102991.14
2019-02-14T18:51:11.115Z,102984.14
2019-02-14T18:53:52.343Z,102987.97
2019-02-14T18:56:22.915Z,102984.31
2019-02-14T18:58:54.791Z,102985.47
2019-02-14T19:01:26.915Z,102985.30
2019-02-14T19:03:59.800Z,102978.62
2019-02-14T19:06:34.855Z,102985.56
2019-02-14T19:09:10.217Z,102985.76
2019-02-14T19:11:49.703Z,102984.56
2019-02-14T19:15:04.695Z,102987.42
2019-02-14T19:17:37.301Z,102992.53
2019-02-14T19:20:14.335Z,102990.34
2019-02-14T19:22:53.321Z,102994.85
2019-02-14T19:25:29.739Z,102994.02
2019-02-14T19:30:40.649Z,102991.19
2019-02-14T19:33:11.373Z,102990.17
2019-02-14T19:35:43.280Z,102989.17
2019-02-14T19:38:17.850Z,102991.95
2019-02-14T19:43:28.615Z,102990.80
2019-02-14T19:46:04.121Z,102992.77
2019-02-14T19:48:38.026Z,102993.45
2019-02-14T19:51:10.490Z,102986.03
2019-02-14T19:53:45.549Z,102986.66
2019-02-14T19:56:18.938Z,102988.17
2019-02-14T19:58:49.537Z,102993.83
2019-02-14T20:01:24.049Z,102997.29
2019-02-14T20:03:54.060Z,102992.36
2019-02-14T20:06:30.665Z,103009.22
2019-02-14T20:09:03.983Z,102997.09
2019-02-14T20:11:40.344Z,102995.72
2019-02-14T20:14:17.746Z,102993.63
2019-02-14T20:16:49.446Z,102998.66
2019-02-14T20:19:27.287Z,103007.02
2019-02-14T20:22:13.185Z,103011.50
2019-02-14T20:25:45.881Z,103009.53
2019-02-14T20:28:18.718Z,103012.13
2019-02-14T20:30:51.712Z,103012.17
2019-02-14T20:36:58.736Z,103012.69
2019-02-14T20:39:32.498Z,103010.89
2019-02-14T20:42:08.730Z,103010.83
2019-02-14T20:44:48.592Z,103015.44
2019-02-14T20:47:18.842Z,103013.62
2019-02-14T20:49:55.399Z,103011.98
2019-02-14T20:52:31.879Z,103013.33
2019-02-14T20:55:04.733Z,103004.50
2019-02-14T20:57:47.136Z,103005.28
2019-02-14T21:00:31.202Z,103007.20
2019-02-14T21:03:08.781Z,102999.45
2019-02-14T21:05:40.170Z,103004.46
2019-02-14T21:08:20.013Z,103002.17
2019-02-14T21:10:53.252Z,103006.95
2019-02-14T21:13:31.286Z,103002.24
2019-02-14T21:16:03.739Z,103001.42
2019-02-14T21:18:46.982Z,103007.45
2019-02-14T21:21:25.694Z,103008.47
2019-02-14T21:24:00.925Z,103003.87
2019-02-14T21:26:35.879Z,103009.27
2019-02-14T21:29:14.361Z,103009.61
2019-02-14T21:31:46.787Z,103008.98
2019-02-14T21:34:23.092Z,103007.03
2019-02-14T21:36:59.106Z,103006.68
2019-02-14T21:39:29.819Z,103003.49
2019-02-14T21:42:18.790Z,103005.98
2019-02-14T21:44:38.655Z,103011.60
2019-02-14T21:47:18.530Z,103008.37
2019-02-14T21:49:50.028Z,103003.08
2019-02-14T21:52:27.359Z,103008.37
2019-02-14T21:54:57.895Z,103006.28
2019-02-14T21:57:35.202Z,103009.41
2019-02-14T22:00:10.794Z,103011.14
2019-02-14T22:02:42.984Z,103008.52
2019-02-14T22:05:14.702Z,103008.85
2019-02-14T22:07:48.562Z,103012.14
2019-02-14T22:10:23.024Z,103017.42
2019-02-14T22:12:59.502Z,103010.31
2019-02-14T22:15:33.794Z,103008.31
2019-02-14T22:18:07.625Z,103005.95
2019-02-14T22:20:41.719Z,103009.75
2019-02-14T22:23:19.733Z,103007.16
2019-02-14T22:25:56.697Z,103005.98
2019-02-14T22:31:10.504Z,103013.02
2019-02-14T22:33:40.860Z,103010.94
2019-02-14T22:36:15.004Z,103009.98
2019-02-14T22:38:47.954Z,103005.94
2019-02-14T22:41:22.994Z,102997.92
2019-02-14T22:43:56.830Z,103004.69
2019-02-14T22:46:30.649Z,103012.22
2019-02-14T22:49:03.404Z,103008.38
2019-02-14T22:51:37.530Z,103015.81
2019-02-14T22:54:12.237Z,103015.16
2019-02-14T22:56:44.523Z,103012.37
2019-02-14T23:01:56.958Z,103005.64
2019-02-14T23:04:30.456Z,103000.97
2019-02-14T23:07:02.233Z,103007.41
2019-02-14T23:09:39.213Z,103007.97
2019-02-14T23:12:12.648Z,103003.52
2019-02-14T23:14:47.822Z,103004.86
2019-02-14T23:17:22.482Z,103006.33
2019-02-14T23:20:06.299Z,103004.12
2019-02-14T23:22:36.770Z,103002.33
2019-02-14T23:25:15.546Z,102999.78
2019-02-14T23:27:49.306Z,102998.81
2019-02-14T23:30:21.021Z,102990.16
2019-02-14T23:32:57.172Z,102998.09
2019-02-14T23:35:38.774Z,103003.72
2019-02-14T23:38:13.412Z,103001.54
2019-02-14T23:40:49.673Z,103008.93
2019-02-14T23:43:37.818Z,103010.03
2019-02-14T23:48:46.858Z,103011.70
2019-02-14T23:51:24.050Z,103014.95
2019-02-14T23:53:54.448Z,103015.63
2019-02-14T23:56:30.355Z,103016.30
2019-02-14T23:59:06.599Z,103009.31
